SBPV/PVH METAR and TAF weather

Enter ICAO airport designator
Station Type Date Time Source
SBPV METAR 2020/04/05 13:00 UTC NOAA

SBPV 051300Z 03001KT CAVOK 28/22 Q1013


Station Type Date Time Source
SBPV Decoded METAR 2020/04/05 13:00 UTC NOAA

Porto Velho Aeroporto , Brazil (SBPV) 08-46S 063-55W 102M
Apr 05, 2020 - 09:00 AM EDT / 2020.04.05 1300 UTC
Wind: from the NNE (030 degrees) at 1 MPH (1 KT):0
Visibility: greater than 7 mile(s):0
Temperature: 82 F (28 C)
Dew Point: 71 F (22 C)
Relative Humidity: 69%
Pressure (altimeter): 29.91 in. Hg (1013 hPa)
ob: SBPV 051300Z 03001KT CAVOK 28/22 Q1013
cycle: 13

Station Type Date Time Source
SBPV TAF 2020/04/05 12:54 UTC NOAA

TAF TAF SBPV 050920Z 0512/0612 09005KT 9999 SCT012 TX30/0517Z TN24/0609Z
BECMG 0514/0517 SCT027 FEW033TCU
BECMG 0518/0520 01007KT TS SCT027 FEW030CB
BECMG 0521/0523 21005KT NSW SCT027 FEW033TCU
BECMG 0602/0604 00000KT SCT030
RMK PHQ

Example: see airport list